Time;durP1;ratioP1;P1;durP2;ratioP2;P2;SDS_P1;SDS_P2;PMS_P1;PMS_P2;Temp;Humidity;BMP_temperature;BMP_pressure;BME280_temperature;BME280_humidity;BME280_pressure;Samples;Min_cycle;Max_cycle;Signal;HPM_P1;HPM_P2
2022/12/28 00:00:31;;;;;;;1.80;1.80;;;;;;;;;;4990694;28;20434;-69
2022/12/28 00:02:57;;;;;;;1.20;1.20;;;;;;;;;;4991763;28;20928;-68
2022/12/28 00:05:23;;;;;;;2.07;1.80;;;;;;;;;;4991396;28;20867;-68
2022/12/28 00:07:49;;;;;;;1.40;1.40;;;;;;;;;;4991193;28;20448;-69
2022/12/28 00:10:15;;;;;;;1.53;1.43;;;;;;;;;;4989904;28;20433;-68
2022/12/28 00:12:41;;;;;;;3.07;1.80;;;;;;;;;;4991537;28;20515;-69
2022/12/28 00:15:07;;;;;;;1.37;1.37;;;;;;;;;;4991039;28;20524;-69
2022/12/28 00:17:33;;;;;;;1.50;1.50;;;;;;;;;;4990359;28;20453;-69
2022/12/28 00:19:59;;;;;;;1.70;1.70;;;;;;;;;;4991428;28;20424;-68
2022/12/28 00:22:26;;;;;;;2.57;1.80;;;;;;;;;;4990009;28;20523;-69
2022/12/28 00:24:52;;;;;;;2.73;2.63;;;;;;;;;;4990823;28;20441;-69
2022/12/28 00:27:18;;;;;;;2.70;2.60;;;;;;;;;;4989531;28;20436;-69
2022/12/28 00:29:44;;;;;;;4.50;1.70;;;;;;;;;;4990572;28;20528;-68
2022/12/28 00:32:10;;;;;;;2.30;2.23;;;;;;;;;;4990320;28;20512;-69
2022/12/28 00:34:36;;;;;;;1.50;1.50;;;;;;;;;;4990185;28;20539;-68
2022/12/28 00:37:02;;;;;;;1.20;1.20;;;;;;;;;;4990372;28;20437;-69
2022/12/28 00:39:28;;;;;;;1.80;1.70;;;;;;;;;;4989871;28;20424;-69
2022/12/28 00:41:54;;;;;;;1.70;1.60;;;;;;;;;;5015720;28;21059;-69
2022/12/28 00:44:20;;;;;;;1.60;1.50;;;;;;;;;;5025672;28;20447;-69
2022/12/28 00:46:47;;;;;;;1.57;1.50;;;;;;;;;;5026863;28;20438;-68
2022/12/28 00:49:13;;;;;;;1.60;1.60;;;;;;;;;;5024267;28;20443;-69
2022/12/28 00:51:39;;;;;;;2.13;2.10;;;;;;;;;;5019571;28;20490;-68
2022/12/28 00:54:05;;;;;;;1.97;1.97;;;;;;;;;;5025370;28;20962;-68
2022/12/28 00:56:31;;;;;;;1.80;1.70;;;;;;;;;;5021727;28;20439;-69
2022/12/28 00:58:58;;;;;;;1.53;1.50;;;;;;;;;;5005380;28;20523;-68
2022/12/28 01:01:24;;;;;;;1.10;1.10;;;;;;;;;;5018880;28;20447;-69
2022/12/28 01:03:51;;;;;;;1.50;1.50;;;;;;;;;;5021184;28;20475;-68
2022/12/28 01:06:17;;;;;;;2.10;1.20;;;;;;;;;;5027804;28;20435;-69
2022/12/28 01:08:44;;;;;;;1.37;1.37;;;;;;;;;;5028151;28;20435;-68
2022/12/28 01:11:12;;;;;;;1.60;1.60;;;;;;;;;;5026760;28;20463;-69
2022/12/28 01:13:39;;;;;;;2.27;2.17;;;;;;;;;;5027588;28;20455;-69
2022/12/28 01:16:15;;;;;;;1.50;1.50;;;;;;;;;;5024933;28;20436;-68
2022/12/28 01:18:41;;;;;;;2.50;2.40;;;;;;;;;;5026016;28;20450;-68
2022/12/28 01:21:12;;;;;;;1.50;1.50;;;;;;;;;;5028370;28;20551;-68
2022/12/28 01:23:38;;;;;;;1.37;1.27;;;;;;;;;;5026720;28;20969;-69
2022/12/28 01:26:04;;;;;;;0.90;0.90;;;;;;;;;;5027501;28;20864;-68
2022/12/28 01:28:30;;;;;;;2.07;0.90;;;;;;;;;;5011159;28;20795;-69
2022/12/28 01:30:56;;;;;;;2.87;2.70;;;;;;;;;;5013612;28;20480;-69
2022/12/28 01:33:22;;;;;;;4.57;4.27;;;;;;;;;;5027177;28;20435;-68
2022/12/28 01:35:48;;;;;;;4.00;3.70;;;;;;;;;;5032236;28;20459;-68
2022/12/28 01:38:14;;;;;;;3.53;3.23;;;;;;;;;;5031994;28;20431;-69
2022/12/28 01:40:43;;;;;;;2.30;2.20;;;;;;;;;;5022847;28;20830;-69
2022/12/28 01:43:15;;;;;;;2.60;2.50;;;;;;;;;;5032239;28;20447;-69
2022/12/28 01:45:47;;;;;;;2.50;2.20;;;;;;;;;;5032242;28;20455;-69
2022/12/28 01:48:18;;;;;;;2.57;2.43;;;;;;;;;;5013553;28;20915;-69
2022/12/28 01:50:44;;;;;;;1.50;1.50;;;;;;;;;;5032199;28;20435;-69
2022/12/28 01:53:10;;;;;;;1.87;1.80;;;;;;;;;;5027625;28;20807;-69
2022/12/28 01:55:38;;;;;;;1.83;1.60;;;;;;;;;;5007311;28;20431;-69
2022/12/28 01:58:11;;;;;;;1.83;1.80;;;;;;;;;;5013975;28;20470;-69
2022/12/28 02:00:37;;;;;;;2.23;2.13;;;;;;;;;;5024602;28;21017;-69
2022/12/28 02:03:06;;;;;;;2.60;2.40;;;;;;;;;;5027312;28;20798;-69
2022/12/28 02:05:34;;;;;;;3.97;2.00;;;;;;;;;;5028648;28;20438;-69
2022/12/28 02:08:03;;;;;;;2.23;2.07;;;;;;;;;;5022006;28;20439;-69
2022/12/28 02:10:29;;;;;;;1.47;1.47;;;;;;;;;;5031403;28;20431;-69
2022/12/28 02:12:56;;;;;;;2.20;1.83;;;;;;;;;;5031843;28;20784;-69
2022/12/28 02:15:22;;;;;;;2.30;2.07;;;;;;;;;;5027015;28;20969;-69
2022/12/28 02:17:48;;;;;;;1.70;1.60;;;;;;;;;;5028442;28;20427;-69
2022/12/28 02:20:14;;;;;;;1.63;1.63;;;;;;;;;;5030756;28;20932;-68
2022/12/28 02:22:40;;;;;;;2.83;2.73;;;;;;;;;;5027483;28;20935;-68
2022/12/28 02:25:21;;;;;;;1.87;1.87;;;;;;;;;;5012873;28;20446;-69
2022/12/28 02:28:07;;;;;;;2.13;2.00;;;;;;;;;;5029691;28;20993;-68
2022/12/28 02:30:37;;;;;;;5.07;1.50;;;;;;;;;;5016708;28;20432;-69
2022/12/28 02:33:11;;;;;;;2.10;2.10;;;;;;;;;;4995210;28;20996;-68
2022/12/28 02:35:48;;;;;;;2.20;2.10;;;;;;;;;;5016456;28;20475;-68
2022/12/28 02:38:18;;;;;;;5.30;1.80;;;;;;;;;;5012489;28;20510;-69
2022/12/28 02:40:46;;;;;;;1.57;1.57;;;;;;;;;;5002400;28;20956;-68
2022/12/28 02:43:12;;;;;;;1.87;1.77;;;;;;;;;;4992726;28;20445;-68
2022/12/28 02:51:30;;;;;;;3.10;1.77;;;;;;;;;;4992461;28;20538;-68
2022/12/28 02:53:56;;;;;;;1.80;1.70;;;;;;;;;;4991888;28;20508;-68
2022/12/28 02:56:31;;;;;;;1.80;1.80;;;;;;;;;;4992238;28;20536;-69
2022/12/28 02:59:03;;;;;;;1.10;1.10;;;;;;;;;;4992074;28;20424;-68
2022/12/28 03:01:39;;;;;;;4.37;1.67;;;;;;;;;;4992074;28;20443;-68
2022/12/28 03:04:11;;;;;;;1.27;1.27;;;;;;;;;;4991217;28;20852;-69
2022/12/28 03:09:30;;;;;;;1.10;1.10;;;;;;;;;;4991303;28;20480;-69
2022/12/28 03:12:04;;;;;;;1.90;1.50;;;;;;;;;;4991239;28;20862;-69
2022/12/28 03:14:34;;;;;;;1.47;1.37;;;;;;;;;;4992235;28;20779;-69
2022/12/28 03:31:06;;;;;;;0.40;0.40;;;;;;;;;;4990683;28;20439;-69
2022/12/28 03:33:36;;;;;;;0.63;0.63;;;;;;;;;;4991943;28;21012;-69
2022/12/28 03:36:06;;;;;;;0.50;0.50;;;;;;;;;;4992018;28;20993;-68
2022/12/28 03:38:38;;;;;;;1.03;0.50;;;;;;;;;;4990777;28;20434;-69
2022/12/28 03:41:08;;;;;;;5.23;0.60;;;;;;;;;;5011509;28;20463;-68
2022/12/28 03:43:44;;;;;;;2.47;0.50;;;;;;;;;;5029953;28;20431;-69
2022/12/28 03:46:21;;;;;;;4.00;0.70;;;;;;;;;;5031190;28;20408;-69
2022/12/28 03:48:48;;;;;;;2.63;0.40;;;;;;;;;;5029738;28;20496;-69
2022/12/28 03:51:15;;;;;;;0.73;0.53;;;;;;;;;;5028176;28;20486;-69
2022/12/28 03:53:43;;;;;;;0.70;0.70;;;;;;;;;;5019636;28;20885;-68
2022/12/28 03:56:13;;;;;;;0.50;0.50;;;;;;;;;;5010849;28;20439;-69
2022/12/28 03:58:39;;;;;;;1.87;0.50;;;;;;;;;;5010375;28;20436;-69
2022/12/28 04:01:05;;;;;;;0.40;0.40;;;;;;;;;;5022765;28;20447;-69
2022/12/28 04:03:31;;;;;;;2.43;0.40;;;;;;;;;;5011307;28;20436;-68
2022/12/28 04:05:57;;;;;;;0.40;0.40;;;;;;;;;;5022176;28;20438;-69
2022/12/28 04:08:23;;;;;;;0.73;0.53;;;;;;;;;;5016769;28;20444;-69
2022/12/28 04:10:49;;;;;;;0.57;0.57;;;;;;;;;;5026114;28;20435;-69
2022/12/28 04:13:15;;;;;;;1.10;0.40;;;;;;;;;;5015365;28;20490;-68
2022/12/28 04:15:41;;;;;;;2.87;0.60;;;;;;;;;;5010804;28;20539;-69
2022/12/28 04:18:07;;;;;;;0.40;0.40;;;;;;;;;;4992758;28;20650;-69
2022/12/28 04:20:33;;;;;;;4.33;0.50;;;;;;;;;;5022066;28;20430;-68
2022/12/28 04:22:59;;;;;;;4.67;0.60;;;;;;;;;;5029157;28;20435;-69
2022/12/28 04:25:25;;;;;;;1.07;0.60;;;;;;;;;;5021598;28;20952;-69
2022/12/28 04:27:51;;;;;;;1.67;0.60;;;;;;;;;;5030134;28;20777;-69
2022/12/28 04:30:17;;;;;;;0.63;0.63;;;;;;;;;;5026236;28;20434;-69
2022/12/28 04:32:43;;;;;;;0.50;0.50;;;;;;;;;;5025624;28;20482;-69
2022/12/28 04:35:09;;;;;;;0.93;0.60;;;;;;;;;;5025861;28;20427;-69
2022/12/28 04:37:38;;;;;;;0.57;0.40;;;;;;;;;;5028198;28;20437;-68
2022/12/28 04:40:04;;;;;;;0.67;0.63;;;;;;;;;;5026590;28;20878;-69
2022/12/28 04:42:31;;;;;;;0.67;0.67;;;;;;;;;;5018928;28;20435;-68
2022/12/28 04:44:57;;;;;;;1.67;1.40;;;;;;;;;;5029347;28;20944;-69
2022/12/28 04:47:23;;;;;;;1.33;0.60;;;;;;;;;;5017771;28;20482;-68
2022/12/28 04:49:49;;;;;;;0.30;0.30;;;;;;;;;;5020429;28;20451;-68
2022/12/28 04:52:15;;;;;;;3.20;0.40;;;;;;;;;;5027577;28;20478;-68
2022/12/28 04:54:41;;;;;;;0.47;0.40;;;;;;;;;;5027739;28;20842;-68
2022/12/28 04:57:07;;;;;;;0.47;0.40;;;;;;;;;;5029724;28;20458;-68
2022/12/28 04:59:33;;;;;;;4.37;0.30;;;;;;;;;;5023589;28;20776;-69
2022/12/28 05:01:59;;;;;;;1.30;0.40;;;;;;;;;;5025851;28;20451;-69
2022/12/28 05:04:25;;;;;;;1.90;0.40;;;;;;;;;;5029778;28;20446;-69
2022/12/28 05:06:51;;;;;;;1.80;0.50;;;;;;;;;;4993651;28;20425;-68
2022/12/28 05:09:18;;;;;;;0.50;0.50;;;;;;;;;;5017650;28;20462;-69
2022/12/28 05:11:44;;;;;;;0.83;0.70;;;;;;;;;;5022129;28;20620;-68
2022/12/28 05:14:10;;;;;;;0.40;0.40;;;;;;;;;;4999505;28;21109;-69
2022/12/28 05:16:36;;;;;;;0.63;0.40;;;;;;;;;;5011722;28;20424;-69
2022/12/28 05:19:02;;;;;;;0.60;0.47;;;;;;;;;;5017950;28;20447;-68
2022/12/28 05:21:28;;;;;;;0.50;0.50;;;;;;;;;;5027848;28;20442;-69
2022/12/28 05:23:56;;;;;;;1.00;0.50;;;;;;;;;;5026406;28;20440;-69
2022/12/28 05:26:23;;;;;;;0.50;0.50;;;;;;;;;;5027501;28;20774;-69
2022/12/28 05:28:49;;;;;;;0.50;0.50;;;;;;;;;;5027925;28;20428;-68
2022/12/28 05:31:17;;;;;;;0.30;0.30;;;;;;;;;;5026326;28;20825;-69
2022/12/28 05:33:43;;;;;;;2.77;0.40;;;;;;;;;;5022206;28;20443;-69
2022/12/28 05:36:09;;;;;;;0.60;0.60;;;;;;;;;;5021853;28;20979;-69
2022/12/28 05:38:36;;;;;;;6.03;0.60;;;;;;;;;;5023562;28;20805;-69
2022/12/28 05:41:06;;;;;;;2.00;1.00;;;;;;;;;;5012209;28;21007;-68
2022/12/28 05:43:32;;;;;;;0.80;0.80;;;;;;;;;;5009343;28;20432;-68
2022/12/28 05:46:04;;;;;;;0.77;0.70;;;;;;;;;;5007696;28;20432;-68
2022/12/28 05:48:31;;;;;;;0.50;0.50;;;;;;;;;;5007435;28;20435;-68
2022/12/28 05:50:59;;;;;;;0.70;0.70;;;;;;;;;;5006254;28;20440;-68
2022/12/28 05:53:25;;;;;;;3.03;0.87;;;;;;;;;;5008926;28;20550;-69
2022/12/28 05:55:50;;;;;;;1.70;1.10;;;;;;;;;;5008721;28;20803;-69
2022/12/28 05:58:16;;;;;;;0.77;0.77;;;;;;;;;;5009635;28;20433;-69
2022/12/28 06:00:42;;;;;;;3.77;0.80;;;;;;;;;;5008356;28;20432;-68
2022/12/28 06:03:08;;;;;;;0.60;0.60;;;;;;;;;;5009269;28;20458;-69
2022/12/28 06:05:34;;;;;;;7.03;2.97;;;;;;;;;;5009337;28;20509;-68
2022/12/28 06:08:00;;;;;;;1.13;0.77;;;;;;;;;;5009506;28;20494;-69
2022/12/28 06:10:26;;;;;;;0.50;0.50;;;;;;;;;;5008038;28;20451;-68
2022/12/28 06:12:52;;;;;;;1.70;0.50;;;;;;;;;;5008989;28;20487;-69
2022/12/28 06:15:18;;;;;;;0.80;0.70;;;;;;;;;;5009260;28;20455;-68
2022/12/28 06:17:44;;;;;;;0.60;0.60;;;;;;;;;;5008604;28;20494;-69
2022/12/28 06:20:10;;;;;;;0.93;0.63;;;;;;;;;;5008911;28;20424;-69
2022/12/28 06:22:36;;;;;;;0.60;0.60;;;;;;;;;;5009127;28;20424;-68
2022/12/28 06:25:02;;;;;;;0.50;0.50;;;;;;;;;;5012612;28;20828;-68
2022/12/28 06:27:28;;;;;;;0.57;0.57;;;;;;;;;;5012210;28;20498;-69
2022/12/28 06:29:54;;;;;;;0.57;0.57;;;;;;;;;;5012179;28;20444;-69
2022/12/28 06:32:20;;;;;;;1.07;0.50;;;;;;;;;;5008364;28;20487;-69
2022/12/28 06:34:46;;;;;;;2.67;0.50;;;;;;;;;;5012495;28;20439;-68
2022/12/28 06:37:11;;;;;;;0.30;0.30;;;;;;;;;;5012302;28;20936;-69
2022/12/28 06:39:37;;;;;;;0.50;0.50;;;;;;;;;;5010504;28;20468;-69
2022/12/28 06:42:03;;;;;;;0.90;0.90;;;;;;;;;;5018910;28;20485;-69
2022/12/28 06:44:29;;;;;;;0.50;0.50;;;;;;;;;;5028732;28;20435;-68
2022/12/28 06:46:55;;;;;;;0.80;0.70;;;;;;;;;;5029408;28;20586;-69
2022/12/28 06:49:21;;;;;;;1.53;0.70;;;;;;;;;;5024055;28;20543;-69
2022/12/28 06:51:47;;;;;;;0.63;0.63;;;;;;;;;;5030173;28;20487;-69
2022/12/28 06:54:13;;;;;;;0.53;0.53;;;;;;;;;;5031110;28;20431;-69
2022/12/28 06:56:39;;;;;;;0.73;0.43;;;;;;;;;;5031473;28;20448;-69
2022/12/28 06:59:05;;;;;;;4.03;0.53;;;;;;;;;;5031455;28;20435;-68
2022/12/28 07:01:36;;;;;;;0.60;0.60;;;;;;;;;;5031621;28;20430;-69
2022/12/28 07:04:02;;;;;;;0.80;0.80;;;;;;;;;;5013955;28;20989;-69
2022/12/28 07:06:29;;;;;;;2.63;1.13;;;;;;;;;;5010987;28;20589;-69
2022/12/28 07:08:59;;;;;;;0.73;0.73;;;;;;;;;;5028726;28;20438;-69
2022/12/28 07:11:25;;;;;;;5.20;0.57;;;;;;;;;;5026555;28;20481;-68
2022/12/28 07:13:51;;;;;;;1.63;1.53;;;;;;;;;;5027893;28;20443;-68
2022/12/28 07:16:18;;;;;;;0.43;0.43;;;;;;;;;;5028913;28;20943;-68
2022/12/28 07:18:45;;;;;;;2.53;0.80;;;;;;;;;;5020703;28;20919;-68
2022/12/28 07:21:12;;;;;;;2.10;0.30;;;;;;;;;;5028214;28;20439;-69
2022/12/28 07:23:38;;;;;;;5.30;0.70;;;;;;;;;;5027989;28;20442;-66
2022/12/28 07:26:06;;;;;;;0.53;0.53;;;;;;;;;;5026805;28;20527;-68
2022/12/28 07:28:32;;;;;;;0.40;0.40;;;;;;;;;;5023171;28;20434;-69
2022/12/28 07:30:58;;;;;;;0.73;0.40;;;;;;;;;;5029721;28;20436;-68
2022/12/28 07:33:24;;;;;;;1.60;0.60;;;;;;;;;;5005060;28;21844;-68
2022/12/28 07:35:50;;;;;;;4.23;0.60;;;;;;;;;;5028562;28;20434;-68
2022/12/28 07:38:16;;;;;;;0.50;0.50;;;;;;;;;;5030396;28;20534;-68
2022/12/28 07:40:41;;;;;;;0.50;0.50;;;;;;;;;;5010999;28;20836;-68
2022/12/28 07:43:07;;;;;;;1.07;0.40;;;;;;;;;;4991058;28;21821;-68
2022/12/28 07:45:33;;;;;;;2.10;0.77;;;;;;;;;;4991184;28;20924;-68
2022/12/28 07:47:59;;;;;;;3.80;0.77;;;;;;;;;;4990644;28;20433;-68
2022/12/28 07:50:25;;;;;;;0.43;0.43;;;;;;;;;;4988494;28;20774;-69
2022/12/28 07:52:51;;;;;;;2.40;0.60;;;;;;;;;;4990613;28;20543;-68
2022/12/28 07:55:17;;;;;;;1.70;0.40;;;;;;;;;;4990249;28;20429;-68
2022/12/28 07:57:43;;;;;;;1.20;0.50;;;;;;;;;;4990925;28;20519;-68
2022/12/28 08:00:09;;;;;;;0.40;0.40;;;;;;;;;;4989729;28;20444;-69
2022/12/28 08:02:35;;;;;;;2.10;0.57;;;;;;;;;;4973310;28;20545;-69
2022/12/28 08:05:01;;;;;;;1.30;0.63;;;;;;;;;;4986934;28;21013;-69
2022/12/28 08:07:27;;;;;;;0.40;0.40;;;;;;;;;;4990390;28;20862;-69
2022/12/28 08:09:54;;;;;;;0.77;0.73;;;;;;;;;;4988986;28;21890;-69
2022/12/28 08:12:20;;;;;;;0.50;0.50;;;;;;;;;;4991171;28;20480;-69
2022/12/28 08:14:46;;;;;;;0.53;0.53;;;;;;;;;;4991188;28;20417;-69
2022/12/28 08:17:12;;;;;;;0.60;0.60;;;;;;;;;;4990204;28;20464;-68
2022/12/28 08:19:38;;;;;;;1.77;0.50;;;;;;;;;;4990537;28;20429;-69
2022/12/28 08:22:04;;;;;;;0.63;0.63;;;;;;;;;;4990881;28;20493;-68
2022/12/28 08:24:29;;;;;;;8.93;0.30;;;;;;;;;;4990621;28;20432;-69
2022/12/28 08:26:55;;;;;;;1.23;0.50;;;;;;;;;;4989696;28;20447;-69
2022/12/28 08:29:21;;;;;;;0.67;0.67;;;;;;;;;;4988537;28;20461;-70
2022/12/28 08:31:48;;;;;;;1.13;0.60;;;;;;;;;;4990363;28;20481;-69
2022/12/28 08:34:18;;;;;;;1.80;0.50;;;;;;;;;;4990374;28;20429;-69
2022/12/28 08:36:44;;;;;;;1.13;1.00;;;;;;;;;;4990507;28;20542;-70
2022/12/28 08:39:10;;;;;;;2.10;0.50;;;;;;;;;;4990079;28;20954;-69
2022/12/28 08:41:36;;;;;;;0.50;0.50;;;;;;;;;;5017606;28;21019;-69
2022/12/28 08:44:02;;;;;;;0.70;0.50;;;;;;;;;;5028948;28;20938;-69
2022/12/28 08:46:29;;;;;;;0.40;0.40;;;;;;;;;;5010093;28;20948;-69
2022/12/28 08:48:56;;;;;;;1.80;0.30;;;;;;;;;;5022602;28;20431;-69
2022/12/28 08:51:26;;;;;;;0.53;0.53;;;;;;;;;;5026830;28;20471;-69
2022/12/28 08:53:52;;;;;;;0.50;0.50;;;;;;;;;;5010394;28;20439;-69
2022/12/28 08:56:26;;;;;;;1.30;0.60;;;;;;;;;;5027680;28;20423;-69
2022/12/28 08:58:52;;;;;;;0.40;0.40;;;;;;;;;;5029491;28;20435;-69
2022/12/28 09:01:18;;;;;;;0.43;0.43;;;;;;;;;;5010248;28;20428;-69
2022/12/28 09:03:45;;;;;;;0.60;0.50;;;;;;;;;;5026709;28;20447;-69
2022/12/28 09:06:12;;;;;;;0.57;0.57;;;;;;;;;;5027514;28;20442;-68
2022/12/28 09:08:39;;;;;;;0.53;0.50;;;;;;;;;;5025032;28;20444;-69
2022/12/28 09:11:07;;;;;;;0.40;0.40;;;;;;;;;;5005791;28;20441;-69
2022/12/28 09:13:33;;;;;;;0.50;0.50;;;;;;;;;;5022234;28;20475;-69
2022/12/28 09:16:00;;;;;;;4.53;0.60;;;;;;;;;;5025374;28;20423;-69
2022/12/28 09:18:26;;;;;;;0.50;0.50;;;;;;;;;;5024676;28;20515;-69
2022/12/28 09:20:52;;;;;;;1.13;0.40;;;;;;;;;;5026733;28;20518;-70
2022/12/28 09:23:18;;;;;;;1.80;0.70;;;;;;;;;;5023858;28;20423;-69
2022/12/28 09:25:44;;;;;;;1.63;1.53;;;;;;;;;;5021760;28;20497;-69
2022/12/28 09:28:10;;;;;;;3.50;1.30;;;;;;;;;;5020645;28;20444;-69
2022/12/28 09:30:36;;;;;;;0.67;0.60;;;;;;;;;;5023380;28;20467;-69
2022/12/28 09:35:47;;;;;;;0.50;0.50;;;;;;;;;;5027162;28;20419;-69
2022/12/28 09:38:13;;;;;;;0.80;0.40;;;;;;;;;;5009663;28;20430;-70
2022/12/28 09:40:39;;;;;;;0.50;0.50;;;;;;;;;;5027311;28;20475;-69
2022/12/28 09:43:05;;;;;;;0.30;0.30;;;;;;;;;;5026831;28;20475;-69
2022/12/28 09:45:32;;;;;;;2.30;0.60;;;;;;;;;;5028746;28;20454;-70
2022/12/28 09:48:00;;;;;;;0.77;0.50;;;;;;;;;;5028955;28;20455;-69
2022/12/28 09:50:28;;;;;;;2.20;0.40;;;;;;;;;;4998292;28;20494;-69
2022/12/28 09:53:02;;;;;;;0.77;0.40;;;;;;;;;;5018416;28;20482;-69
2022/12/28 09:55:28;;;;;;;0.30;0.30;;;;;;;;;;5008699;28;20419;-69
2022/12/28 09:57:55;;;;;;;0.40;0.40;;;;;;;;;;5032144;28;20435;-69
2022/12/28 10:00:23;;;;;;;2.70;0.80;;;;;;;;;;5014723;28;20430;-69
2022/12/28 10:02:52;;;;;;;0.70;0.50;;;;;;;;;;5015058;28;20427;-69
2022/12/28 10:05:19;;;;;;;2.93;0.50;;;;;;;;;;5029168;28;20985;-69
2022/12/28 10:07:45;;;;;;;0.47;0.47;;;;;;;;;;5031907;28;20474;-69
2022/12/28 10:10:18;;;;;;;1.80;0.30;;;;;;;;;;5031859;28;21000;-69
2022/12/28 10:12:44;;;;;;;0.50;0.50;;;;;;;;;;5032487;28;20489;-69
2022/12/28 10:15:12;;;;;;;0.50;0.50;;;;;;;;;;5032642;28;20431;-69
2022/12/28 10:17:38;;;;;;;1.03;0.70;;;;;;;;;;5032580;28;20423;-69
2022/12/28 10:20:06;;;;;;;0.70;0.70;;;;;;;;;;5033017;28;20432;-68
2022/12/28 10:22:36;;;;;;;0.93;0.83;;;;;;;;;;5031304;28;20431;-69
2022/12/28 10:25:05;;;;;;;0.67;0.50;;;;;;;;;;5031875;28;20427;-69
2022/12/28 10:27:31;;;;;;;0.77;0.50;;;;;;;;;;5014355;28;20513;-69
2022/12/28 10:29:59;;;;;;;0.30;0.30;;;;;;;;;;5032516;28;20427;-70
2022/12/28 10:32:25;;;;;;;3.40;0.40;;;;;;;;;;5031494;28;20894;-69
2022/12/28 10:34:59;;;;;;;0.57;0.57;;;;;;;;;;5032572;28;21066;-70
2022/12/28 10:37:27;;;;;;;2.10;0.70;;;;;;;;;;5032231;28;20420;-69
2022/12/28 10:39:54;;;;;;;0.60;0.60;;;;;;;;;;5031888;28;20518;-69
2022/12/28 10:42:22;;;;;;;0.97;0.40;;;;;;;;;;5032069;28;20434;-69
2022/12/28 10:44:49;;;;;;;0.67;0.33;;;;;;;;;;5032448;28;20521;-69
2022/12/28 10:47:16;;;;;;;0.40;0.40;;;;;;;;;;5031900;28;20415;-69
2022/12/28 10:49:48;;;;;;;1.53;0.50;;;;;;;;;;5032241;28;20585;-69
2022/12/28 10:52:14;;;;;;;0.87;0.47;;;;;;;;;;5027286;28;20885;-69
2022/12/28 10:54:40;;;;;;;3.47;0.90;;;;;;;;;;5030013;28;20923;-69
2022/12/28 10:57:06;;;;;;;0.43;0.43;;;;;;;;;;5031915;28;20928;-69
2022/12/28 10:59:32;;;;;;;0.40;0.40;;;;;;;;;;5013294;28;20551;-69
2022/12/28 11:02:21;;;;;;;8.13;0.70;;;;;;;;;;5031333;28;21086;-69
2022/12/28 11:05:01;;;;;;;1.30;1.30;;;;;;;;;;5028407;28;20784;-69
2022/12/28 11:07:27;;;;;;;2.10;0.63;;;;;;;;;;5030056;28;20526;-69
2022/12/28 11:09:53;;;;;;;1.00;0.70;;;;;;;;;;5031309;28;20557;-68
2022/12/28 11:12:24;;;;;;;0.67;0.67;;;;;;;;;;5031627;28;20566;-69
2022/12/28 11:14:51;;;;;;;0.53;0.40;;;;;;;;;;5031897;28;20426;-69
2022/12/28 11:17:28;;;;;;;5.70;0.90;;;;;;;;;;5031683;28;20638;-69
2022/12/28 11:19:55;;;;;;;0.40;0.40;;;;;;;;;;5031421;28;20915;-68
2022/12/28 11:22:26;;;;;;;0.40;0.40;;;;;;;;;;5031561;28;20454;-69
2022/12/28 11:24:52;;;;;;;2.27;2.20;;;;;;;;;;5029837;28;20838;-69
2022/12/28 11:27:21;;;;;;;0.70;0.67;;;;;;;;;;5029782;28;20450;-69
2022/12/28 11:29:48;;;;;;;5.43;5.03;;;;;;;;;;5027387;28;20462;-69
2022/12/28 11:32:22;;;;;;;3.23;2.93;;;;;;;;;;5010620;28;20474;-68
2022/12/28 11:34:49;;;;;;;3.60;3.30;;;;;;;;;;5008219;28;20557;-70
2022/12/28 11:37:15;;;;;;;9.00;6.90;;;;;;;;;;5027913;28;20478;-69
2022/12/28 11:39:42;;;;;;;13.70;9.50;;;;;;;;;;5024078;28;20419;-69
2022/12/28 11:42:08;;;;;;;78.20;30.20;;;;;;;;;;5024657;28;21118;-69
2022/12/28 11:44:34;;;;;;;2.60;2.50;;;;;;;;;;5027795;28;20424;-69
2022/12/28 11:47:05;;;;;;;12.53;11.20;;;;;;;;;;5025994;28;20434;-68
2022/12/28 11:49:33;;;;;;;2.20;2.20;;;;;;;;;;5027637;28;20966;-68
2022/12/28 11:52:14;;;;;;;1.83;1.73;;;;;;;;;;5010695;28;20472;-68
2022/12/28 11:54:54;;;;;;;2.53;1.50;;;;;;;;;;5020451;28;20412;-68
2022/12/28 11:57:37;;;;;;;3.20;3.10;;;;;;;;;;5026510;28;20514;-68
2022/12/28 12:00:15;;;;;;;1.10;1.00;;;;;;;;;;5025247;28;20458;-68
2022/12/28 12:02:46;;;;;;;0.80;0.80;;;;;;;;;;5023353;28;20435;-68
2022/12/28 12:05:31;;;;;;;1.17;1.07;;;;;;;;;;5025430;28;20434;-68
2022/12/28 12:07:57;;;;;;;1.50;1.40;;;;;;;;;;5024016;28;20767;-68
2022/12/28 12:10:28;;;;;;;1.73;1.63;;;;;;;;;;5024606;28;20502;-68
2022/12/28 12:12:54;;;;;;;1.03;1.03;;;;;;;;;;5027362;28;20522;-68
2022/12/28 12:15:24;;;;;;;2.17;2.17;;;;;;;;;;5027547;28;20462;-68
2022/12/28 12:17:52;;;;;;;2.20;2.20;;;;;;;;;;5024010;28;20511;-68
2022/12/28 12:20:21;;;;;;;1.17;0.80;;;;;;;;;;5026507;28;20415;-68
2022/12/28 12:22:50;;;;;;;8.63;1.30;;;;;;;;;;5026343;28;20464;-68
2022/12/28 12:25:39;;;;;;;1.13;1.13;;;;;;;;;;5025517;28;20950;-68
2022/12/28 12:28:13;;;;;;;3.30;3.20;;;;;;;;;;5027114;28;20973;-68
2022/12/28 12:30:41;;;;;;;8.30;1.90;;;;;;;;;;5028016;28;20465;-68
2022/12/28 12:33:12;;;;;;;1.70;1.60;;;;;;;;;;5019012;28;20517;-68
2022/12/28 12:35:47;;;;;;;6.23;5.37;;;;;;;;;;5012347;28;20423;-68
2022/12/28 12:38:25;;;;;;;5.80;5.30;;;;;;;;;;5027687;28;20439;-68
2022/12/28 12:41:21;;;;;;;1.43;1.43;;;;;;;;;;5024550;28;20471;-68
2022/12/28 12:43:50;;;;;;;3.73;2.03;;;;;;;;;;4972337;28;20892;-68
2022/12/28 12:46:34;;;;;;;6.00;3.17;;;;;;;;;;5025515;28;20924;-68
2022/12/28 12:49:06;;;;;;;8.90;4.47;;;;;;;;;;5027418;28;20440;-68
2022/12/28 12:51:56;;;;;;;4.27;2.03;;;;;;;;;;5012285;28;20470;-68
2022/12/28 12:54:25;;;;;;;3.47;3.17;;;;;;;;;;5027837;28;20465;-68
2022/12/28 12:56:56;;;;;;;5.87;2.87;;;;;;;;;;5029681;28;20505;-68
2022/12/28 12:59:41;;;;;;;0.67;0.67;;;;;;;;;;5027926;28;20435;-68
2022/12/28 13:02:16;;;;;;;36.97;17.43;;;;;;;;;;5009569;28;20935;-68
2022/12/28 13:04:46;;;;;;;3.90;3.70;;;;;;;;;;5021343;28;20505;-68
2022/12/28 13:07:26;;;;;;;7.57;5.67;;;;;;;;;;5010876;28;20427;-68
2022/12/28 13:09:53;;;;;;;0.63;0.63;;;;;;;;;;5029348;28;20439;-68
2022/12/28 13:12:19;;;;;;;0.60;0.60;;;;;;;;;;5029396;28;20839;-68
2022/12/28 13:14:47;;;;;;;2.07;1.97;;;;;;;;;;5029757;28;20418;-68
2022/12/28 13:17:16;;;;;;;33.63;13.97;;;;;;;;;;5011428;28;20427;-68
2022/12/28 13:19:42;;;;;;;1.50;1.40;;;;;;;;;;5026716;28;21559;-68
2022/12/28 13:22:25;;;;;;;1.20;1.20;;;;;;;;;;5029383;28;20496;-68
2022/12/28 13:24:51;;;;;;;6.73;1.03;;;;;;;;;;5021091;28;20431;-68
2022/12/28 13:27:18;;;;;;;0.80;0.80;;;;;;;;;;5028052;28;20450;-68
2022/12/28 13:29:49;;;;;;;2.03;1.93;;;;;;;;;;5030631;28;20438;-68
2022/12/28 13:32:29;;;;;;;2.23;2.23;;;;;;;;;;5033263;28;20478;-68
2022/12/28 13:34:55;;;;;;;2.90;1.23;;;;;;;;;;5029336;28;20469;-68
2022/12/28 13:37:21;;;;;;;1.23;1.23;;;;;;;;;;5031497;28;20800;-68
2022/12/28 13:39:47;;;;;;;1.17;1.17;;;;;;;;;;5032896;28;20427;-69
2022/12/28 13:42:17;;;;;;;1.83;1.73;;;;;;;;;;5033062;28;21020;-68
2022/12/28 13:44:45;;;;;;;2.53;1.27;;;;;;;;;;5031607;28;20431;-68
2022/12/28 13:47:14;;;;;;;4.87;1.60;;;;;;;;;;5032262;28;20545;-68
2022/12/28 13:49:48;;;;;;;1.90;1.80;;;;;;;;;;5032204;28;20552;-68
2022/12/28 13:52:17;;;;;;;2.00;1.87;;;;;;;;;;5029098;28;21119;-68
2022/12/28 13:54:51;;;;;;;1.70;1.60;;;;;;;;;;5020577;28;20427;-68
2022/12/28 13:57:18;;;;;;;1.20;1.17;;;;;;;;;;5027354;28;20551;-67
2022/12/28 13:59:45;;;;;;;1.83;1.70;;;;;;;;;;5011193;28;20458;-68
2022/12/28 14:02:15;;;;;;;2.93;0.90;;;;;;;;;;5030559;28;20438;-68
2022/12/28 14:04:41;;;;;;;3.63;2.37;;;;;;;;;;5032504;28;20439;-68
2022/12/28 14:07:12;;;;;;;0.90;0.90;;;;;;;;;;5031182;28;20434;-68
2022/12/28 14:09:38;;;;;;;5.53;1.00;;;;;;;;;;5014262;28;20438;-68
2022/12/28 14:12:04;;;;;;;0.90;0.90;;;;;;;;;;5006229;28;20561;-68
2022/12/28 14:14:30;;;;;;;0.93;0.70;;;;;;;;;;5006297;28;20443;-68
2022/12/28 14:16:56;;;;;;;2.03;0.97;;;;;;;;;;5028717;28;20438;-68
2022/12/28 14:19:22;;;;;;;0.70;0.70;;;;;;;;;;5025099;28;20447;-68
2022/12/28 14:21:50;;;;;;;0.97;0.93;;;;;;;;;;5027281;28;20510;-68
2022/12/28 14:24:16;;;;;;;1.50;1.50;;;;;;;;;;5008106;28;20470;-68
2022/12/28 14:26:49;;;;;;;0.90;0.90;;;;;;;;;;5026479;28;20467;-68
2022/12/28 14:29:19;;;;;;;4.60;1.03;;;;;;;;;;5019447;28;20518;-68
2022/12/28 14:31:45;;;;;;;0.80;0.80;;;;;;;;;;5030536;28;20474;-68
2022/12/28 14:34:20;;;;;;;0.70;0.70;;;;;;;;;;5029432;28;20494;-68
2022/12/28 14:36:48;;;;;;;0.83;0.83;;;;;;;;;;5028181;28;20431;-68
2022/12/28 14:39:21;;;;;;;0.90;0.90;;;;;;;;;;5029245;28;20431;-68
2022/12/28 14:41:47;;;;;;;0.77;0.77;;;;;;;;;;5029117;28;20471;-68
2022/12/28 14:44:15;;;;;;;0.87;0.87;;;;;;;;;;5029067;28;20558;-68
2022/12/28 14:46:41;;;;;;;0.77;0.70;;;;;;;;;;5029996;28;20466;-68
2022/12/28 14:49:26;;;;;;;0.50;0.50;;;;;;;;;;5031886;28;20518;-68
2022/12/28 14:51:52;;;;;;;0.80;0.80;;;;;;;;;;5026901;28;20473;-68
2022/12/28 14:54:22;;;;;;;2.10;0.40;;;;;;;;;;5030450;28;20443;-68
2022/12/28 14:57:00;;;;;;;0.80;0.80;;;;;;;;;;5025544;28;20465;-68
2022/12/28 14:59:28;;;;;;;0.63;0.63;;;;;;;;;;5024014;28;21143;-68
2022/12/28 15:01:54;;;;;;;1.30;1.30;;;;;;;;;;5024912;28;20444;-68
2022/12/28 15:04:26;;;;;;;0.57;0.57;;;;;;;;;;5009747;28;20439;-68
2022/12/28 15:06:53;;;;;;;3.70;0.77;;;;;;;;;;5010178;28;20985;-70
2022/12/28 15:09:19;;;;;;;4.93;1.07;;;;;;;;;;5011184;28;20435;-68
2022/12/28 15:11:45;;;;;;;3.07;1.10;;;;;;;;;;5026845;28;20493;-69
2022/12/28 15:14:12;;;;;;;0.93;0.90;;;;;;;;;;5028862;28;21093;-68